Time;durP1;ratioP1;P1;durP2;ratioP2;P2;SDS_P1;SDS_P2;PMS_P1;PMS_P2;Temp;Humidity;BMP_temperature;BMP_pressure;BME280_temperature;BME280_humidity;BME280_pressure;Samples;Min_cycle;Max_cycle;Signal;HPM_P1;HPM_P2
2022/02/19 00:00:24;;;;;;;13.63;2.72;;;7.20;63.10;;;;;;5043088;28;20431;-64
2022/02/19 00:02:50;;;;;;;16.95;2.85;;;7.20;63.30;;;;;;5052161;28;20040;-63
2022/02/19 00:05:16;;;;;;;17.15;4.40;;;7.20;63.40;;;;;;5049967;28;20472;-64
2022/02/19 00:07:42;;;;;;;12.68;2.42;;;7.20;63.40;;;;;;5044548;28;20048;-63
2022/02/19 00:10:08;;;;;;;14.98;2.50;;;7.20;63.40;;;;;;5046965;28;20079;-64
2022/02/19 00:12:33;;;;;;;15.45;3.25;;;7.20;63.30;;;;;;5040409;28;20082;-64
2022/02/19 00:14:59;;;;;;;12.95;2.05;;;7.10;63.00;;;;;;5048232;28;20032;-63
2022/02/19 00:17:25;;;;;;;10.68;1.98;;;7.10;63.30;;;;;;5042533;28;20032;-64
2022/02/19 00:19:53;;;;;;;17.23;2.50;;;7.10;63.00;;;;;;5041594;28;20035;-64
2022/02/19 00:22:18;;;;;;;15.70;2.10;;;7.10;63.20;;;;;;5044490;28;20040;-63
2022/02/19 00:24:44;;;;;;;13.15;2.60;;;7.10;63.10;;;;;;5049743;28;20028;-63
2022/02/19 00:27:10;;;;;;;14.77;2.50;;;7.10;63.10;;;;;;5042385;28;20034;-64
2022/02/19 00:29:36;;;;;;;14.27;2.50;;;7.10;63.20;;;;;;5043074;28;20071;-64
2022/02/19 00:32:01;;;;;;;16.45;2.83;;;7.10;63.20;;;;;;5049329;28;20052;-63
2022/02/19 00:34:27;;;;;;;18.17;2.65;;;7.10;63.20;;;;;;5032230;28;20060;-63
2022/02/19 00:36:53;;;;;;;10.90;2.85;;;7.10;63.30;;;;;;5046075;28;20065;-64
2022/02/19 00:39:18;;;;;;;15.23;3.03;;;7.10;63.40;;;;;;5032066;28;20041;-63
2022/02/19 00:41:44;;;;;;;18.42;3.10;;;7.00;63.60;;;;;;5064338;28;20033;-64
2022/02/19 00:44:10;;;;;;;13.13;2.42;;;7.00;63.80;;;;;;5031907;28;20108;-63
2022/02/19 00:46:35;;;;;;;17.35;2.40;;;7.00;64.00;;;;;;5043688;28;20043;-64
2022/02/19 00:49:03;;;;;;;17.70;2.78;;;7.00;64.00;;;;;;5034298;28;20140;-63
2022/02/19 00:51:31;;;;;;;11.30;2.30;;;7.00;64.10;;;;;;5036052;28;20025;-64
2022/02/19 00:53:58;;;;;;;16.83;2.22;;;7.00;64.10;;;;;;5052413;28;20040;-64
2022/02/19 00:56:24;;;;;;;12.00;2.53;;;7.00;64.40;;;;;;5034937;28;20428;-63
2022/02/19 00:58:50;;;;;;;11.73;2.50;;;6.90;64.60;;;;;;5032141;28;20041;-63
2022/02/19 01:01:15;;;;;;;15.10;2.60;;;6.90;64.90;;;;;;5048025;28;20475;-64
2022/02/19 01:03:41;;;;;;;14.93;2.42;;;6.90;65.10;;;;;;5040121;28;20407;-64
2022/02/19 01:06:07;;;;;;;22.52;5.07;;;6.90;65.20;;;;;;5045765;28;20523;-64
2022/02/19 01:08:33;;;;;;;16.13;2.50;;;6.90;65.50;;;;;;5041326;28;20039;-64
2022/02/19 01:10:59;;;;;;;16.67;2.72;;;6.90;65.70;;;;;;5032012;28;20029;-63
2022/02/19 01:13:24;;;;;;;20.00;2.65;;;7.00;65.90;;;;;;5032070;28;20025;-63
2022/02/19 01:15:50;;;;;;;15.40;2.58;;;7.00;66.00;;;;;;5030276;28;20034;-64
2022/02/19 01:18:16;;;;;;;10.63;2.30;;;7.00;66.30;;;;;;5035733;28;20026;-63
2022/02/19 01:20:45;;;;;;;13.07;2.75;;;7.00;66.30;;;;;;5031777;28;20515;-63
2022/02/19 01:23:11;;;;;;;24.92;3.53;;;7.00;66.10;;;;;;5036069;28;20507;-64
2022/02/19 01:25:37;;;;;;;13.45;2.67;;;7.00;65.90;;;;;;5044257;28;20060;-63
2022/02/19 01:28:03;;;;;;;10.45;2.22;;;7.00;65.60;;;;;;5034809;28;20091;-63
2022/02/19 01:30:29;;;;;;;14.13;2.45;;;6.90;65.40;;;;;;5041674;28;20041;-64
2022/02/19 01:32:54;;;;;;;12.07;2.60;;;6.90;65.10;;;;;;5031530;28;20040;-63
2022/02/19 01:35:20;;;;;;;17.13;2.78;;;6.90;65.00;;;;;;5046147;28;20061;-64
2022/02/19 01:37:46;;;;;;;12.43;1.98;;;7.00;65.00;;;;;;5031188;28;20025;-63
2022/02/19 01:40:11;;;;;;;14.68;2.80;;;7.00;65.00;;;;;;5049907;28;20028;-64
2022/02/19 01:42:39;;;;;;;11.63;2.45;;;6.90;64.60;;;;;;5049399;28;20150;-63
2022/02/19 01:45:07;;;;;;;10.07;2.03;;;7.00;64.60;;;;;;5033835;28;20049;-63
2022/02/19 01:47:35;;;;;;;14.73;2.50;;;7.00;64.50;;;;;;5043074;28;20399;-63
2022/02/19 01:50:03;;;;;;;8.98;1.70;;;7.00;64.50;;;;;;5035404;28;20366;-63
2022/02/19 01:52:30;;;;;;;11.43;2.25;;;6.90;64.50;;;;;;5056773;28;20100;-64
2022/02/19 01:54:55;;;;;;;9.45;2.80;;;6.90;64.00;;;;;;5054989;28;20044;-64
2022/02/19 01:57:21;;;;;;;11.27;1.73;;;6.90;64.20;;;;;;5046844;28;20014;-63
2022/02/19 01:59:47;;;;;;;11.98;1.90;;;6.90;63.90;;;;;;5047076;28;20041;-64
2022/02/19 02:02:13;;;;;;;13.38;2.40;;;6.90;63.40;;;;;;5030656;28;20033;-64
2022/02/19 02:04:41;;;;;;;11.25;2.20;;;6.90;63.30;;;;;;5030249;28;20471;-63
2022/02/19 02:07:08;;;;;;;12.10;1.70;;;6.90;63.00;;;;;;5061770;28;20079;-63
2022/02/19 02:09:38;;;;;;;7.03;1.65;;;6.90;62.50;;;;;;5030904;28;20029;-63
2022/02/19 02:12:06;;;;;;;9.70;2.13;;;6.90;62.50;;;;;;5031233;28;20096;-64
2022/02/19 02:14:41;;;;;;;7.28;1.40;;;6.90;62.30;;;;;;5031131;28;20489;-64
2022/02/19 02:17:08;;;;;;;8.13;1.50;;;6.90;62.40;;;;;;5045902;28;20017;-63
2022/02/19 02:19:35;;;;;;;7.72;1.90;;;6.90;62.30;;;;;;5043368;28;20047;-63
2022/02/19 02:22:05;;;;;;;6.03;1.55;;;6.80;62.30;;;;;;5040998;28;20064;-63
2022/02/19 02:24:36;;;;;;;12.85;2.55;;;6.80;62.50;;;;;;5042461;28;20033;-63
2022/02/19 02:27:08;;;;;;;9.10;1.70;;;6.90;62.60;;;;;;5050145;28;20035;-63
2022/02/19 02:29:46;;;;;;;16.10;2.28;;;6.80;62.60;;;;;;5042075;28;20053;-63
2022/02/19 02:32:13;;;;;;;7.10;1.80;;;6.80;62.60;;;;;;5044189;28;20543;-64
2022/02/19 02:34:54;;;;;;;8.77;1.70;;;6.80;62.90;;;;;;5046718;28;20031;-63
2022/02/19 02:37:20;;;;;;;12.00;2.00;;;6.80;62.90;;;;;;5048802;28;20036;-64
2022/02/19 02:39:50;;;;;;;9.15;1.70;;;6.80;62.80;;;;;;5070789;28;20494;-63
2022/02/19 02:42:17;;;;;;;11.95;1.80;;;6.80;62.80;;;;;;5046188;28;20472;-63
2022/02/19 02:44:43;;;;;;;8.05;1.88;;;6.80;62.80;;;;;;5082029;28;20507;-63
2022/02/19 02:47:09;;;;;;;7.75;1.40;;;6.80;62.60;;;;;;5043968;28;20037;-63
2022/02/19 02:49:35;;;;;;;13.57;2.20;;;6.80;62.60;;;;;;5047901;28;20079;-64
2022/02/19 02:52:02;;;;;;;7.70;1.85;;;6.80;63.30;;;;;;5037236;28;20021;-63
2022/02/19 02:54:28;;;;;;;7.97;1.50;;;6.80;62.40;;;;;;5049715;28;20032;-64
2022/02/19 02:56:54;;;;;;;8.18;1.98;;;6.80;62.40;;;;;;5049377;28;20386;-64
2022/02/19 02:59:19;;;;;;;10.07;1.75;;;6.80;62.40;;;;;;5048120;28;20065;-64
2022/02/19 03:01:45;;;;;;;11.05;2.40;;;6.80;62.40;;;;;;5046632;28;20082;-63
2022/02/19 03:04:11;;;;;;;12.43;1.58;;;6.80;62.10;;;;;;5049309;28;20371;-63
2022/02/19 03:06:36;;;;;;;10.63;2.30;;;6.90;62.20;;;;;;5046571;28;20504;-64
2022/02/19 03:09:02;;;;;;;8.18;1.58;;;6.80;62.20;;;;;;5037381;28;20531;-63
2022/02/19 03:11:28;;;;;;;7.60;1.85;;;6.80;62.30;;;;;;5048622;28;20029;-63
2022/02/19 03:13:54;;;;;;;9.45;1.85;;;6.80;62.40;;;;;;5049383;28;20502;-63
2022/02/19 03:16:20;;;;;;;15.35;2.03;;;6.80;62.70;;;;;;5037951;28;20030;-64
2022/02/19 03:18:46;;;;;;;10.00;1.92;;;6.80;62.70;;;;;;5035293;28;20068;-63
2022/02/19 03:21:11;;;;;;;14.65;2.40;;;6.80;62.90;;;;;;5047646;28;20041;-66
2022/02/19 03:23:37;;;;;;;8.32;1.50;;;6.80;63.00;;;;;;5056487;28;20083;-63
2022/02/19 03:26:07;;;;;;;10.82;2.08;;;6.90;63.10;;;;;;5040913;28;20369;-63
2022/02/19 03:28:33;;;;;;;14.48;2.08;;;6.80;62.90;;;;;;5039878;28;20053;-63
2022/02/19 03:30:59;;;;;;;9.80;1.95;;;6.80;63.00;;;;;;5040439;28;20045;-63
2022/02/19 03:33:25;;;;;;;8.65;1.95;;;6.80;63.00;;;;;;5042306;28;20128;-64
2022/02/19 03:35:51;;;;;;;10.80;1.92;;;6.80;63.20;;;;;;5061817;28;20123;-64
2022/02/19 03:38:17;;;;;;;17.65;2.60;;;6.80;63.30;;;;;;5046768;28;20033;-64
2022/02/19 03:40:42;;;;;;;8.98;1.98;;;6.80;64.10;;;;;;5049037;28;20462;-63
2022/02/19 03:43:08;;;;;;;10.80;2.15;;;6.80;63.50;;;;;;5037741;28;20132;-63
2022/02/19 03:45:37;;;;;;;12.45;2.15;;;6.80;63.60;;;;;;5029714;28;20040;-63
2022/02/19 03:48:03;;;;;;;11.10;1.92;;;6.80;63.60;;;;;;5034736;28;20431;-64
2022/02/19 03:50:28;;;;;;;16.63;2.45;;;6.80;63.80;;;;;;5041673;28;20029;-64
2022/02/19 03:52:57;;;;;;;12.48;2.13;;;6.80;63.90;;;;;;5049621;28;20040;-64
2022/02/19 03:55:23;;;;;;;11.45;2.05;;;6.80;63.90;;;;;;5050992;28;20032;-63
2022/02/19 03:57:48;;;;;;;13.48;2.28;;;6.80;64.00;;;;;;5052455;28;20380;-64
2022/02/19 04:00:15;;;;;;;11.80;2.85;;;6.80;64.00;;;;;;5070155;28;20033;-63
2022/02/19 04:02:43;;;;;;;12.23;2.38;;;6.80;63.80;;;;;;5046763;28;20515;-64
2022/02/19 04:05:11;;;;;;;13.63;2.40;;;6.80;63.90;;;;;;5083656;28;20480;-63
2022/02/19 04:07:37;;;;;;;21.38;3.15;;;6.80;63.80;;;;;;5049005;28;20082;-64
2022/02/19 04:10:04;;;;;;;10.68;2.10;;;6.80;63.80;;;;;;5051699;28;20063;-63
2022/02/19 04:12:30;;;;;;;12.15;2.55;;;6.70;64.00;;;;;;5049824;28;20040;-63
2022/02/19 04:14:55;;;;;;;12.82;2.35;;;6.80;64.20;;;;;;5083810;28;20037;-64
2022/02/19 04:17:24;;;;;;;14.13;3.70;;;6.70;64.30;;;;;;5043236;28;20540;-64
2022/02/19 04:19:53;;;;;;;11.98;2.38;;;6.70;64.40;;;;;;5060806;28;20025;-63
2022/02/19 04:22:25;;;;;;;13.63;2.50;;;6.70;64.30;;;;;;5043046;28;20032;-64
2022/02/19 04:24:51;;;;;;;11.48;2.50;;;6.70;64.10;;;;;;5049473;28;20040;-63
2022/02/19 04:27:19;;;;;;;12.38;2.25;;;6.70;64.20;;;;;;5051943;28;20090;-63
2022/02/19 04:29:45;;;;;;;12.77;2.35;;;6.70;64.00;;;;;;5048711;28;20120;-63
2022/02/19 04:32:11;;;;;;;15.70;2.88;;;6.70;63.60;;;;;;5048256;28;20478;-64
2022/02/19 04:34:38;;;;;;;10.63;2.13;;;6.70;63.50;;;;;;5049083;28;20025;-64
2022/02/19 04:37:04;;;;;;;14.32;2.60;;;6.70;63.80;;;;;;5044818;28;20036;-64
2022/02/19 04:39:31;;;;;;;16.58;2.50;;;6.70;63.80;;;;;;5051059;28;20029;-63
2022/02/19 04:41:56;;;;;;;18.25;2.80;;;6.70;63.80;;;;;;5038761;28;20051;-63
2022/02/19 04:44:22;;;;;;;16.13;2.67;;;6.70;63.80;;;;;;5051279;28;20029;-63
2022/02/19 04:46:48;;;;;;;15.48;2.13;;;6.70;63.70;;;;;;5046255;28;20126;-64
2022/02/19 04:49:14;;;;;;;15.25;2.63;;;6.70;63.80;;;;;;5041023;28;20131;-64
2022/02/19 04:51:39;;;;;;;11.65;1.95;;;6.70;63.60;;;;;;5070549;28;20052;-63
2022/02/19 04:54:06;;;;;;;13.90;2.85;;;6.60;63.90;;;;;;5045644;28;20106;-64
2022/02/19 04:56:32;;;;;;;11.82;2.20;;;6.60;63.70;;;;;;5039291;28;20025;-63
2022/02/19 04:59:01;;;;;;;12.60;2.50;;;6.70;63.70;;;;;;5063400;28;20029;-63
2022/02/19 05:01:27;;;;;;;12.73;2.45;;;6.70;63.60;;;;;;5032805;28;20104;-64
2022/02/19 05:03:56;;;;;;;12.55;2.65;;;6.70;63.60;;;;;;5031680;28;20034;-64
2022/02/19 05:06:22;;;;;;;10.65;2.08;;;6.70;63.50;;;;;;5034001;28;20033;-64
2022/02/19 05:08:48;;;;;;;10.80;2.08;;;6.70;63.10;;;;;;5046900;28;20029;-64
2022/02/19 05:11:13;;;;;;;14.32;2.10;;;6.70;62.90;;;;;;5032158;28;20101;-64
2022/02/19 05:13:40;;;;;;;9.65;2.00;;;6.70;62.80;;;;;;5033634;28;20083;-64
2022/02/19 05:16:06;;;;;;;22.38;2.45;;;6.60;62.80;;;;;;5036347;28;20026;-64
2022/02/19 05:18:32;;;;;;;16.63;2.20;;;6.60;62.50;;;;;;5031995;28;20056;-64
2022/02/19 05:20:57;;;;;;;8.82;2.50;;;6.60;62.80;;;;;;5063414;28;20044;-63
2022/02/19 05:23:23;;;;;;;8.80;2.17;;;6.70;62.80;;;;;;5033947;28;20437;-64
2022/02/19 05:25:49;;;;;;;13.70;2.15;;;6.60;62.90;;;;;;5034348;28;20040;-66
2022/02/19 05:28:15;;;;;;;14.32;3.45;;;6.60;62.30;;;;;;5063180;28;20045;-67
2022/02/19 05:30:41;;;;;;;15.05;2.45;;;6.60;62.40;;;;;;5039047;28;20087;-67
2022/02/19 05:33:07;;;;;;;10.52;1.70;;;6.60;62.60;;;;;;5039986;28;20021;-67
2022/02/19 05:35:33;;;;;;;10.57;1.70;;;6.60;62.50;;;;;;5049925;28;20036;-67
2022/02/19 05:37:59;;;;;;;12.85;2.15;;;6.60;62.50;;;;;;5039636;28;20029;-68
2022/02/19 05:40:25;;;;;;;11.05;2.45;;;6.60;62.10;;;;;;5043393;28;20036;-67
2022/02/19 05:42:51;;;;;;;9.40;1.70;;;6.60;62.50;;;;;;5051209;28;20112;-67
2022/02/19 05:45:17;;;;;;;10.77;2.00;;;6.60;62.60;;;;;;5060981;28;20108;-67
2022/02/19 05:47:43;;;;;;;13.20;1.75;;;6.60;62.80;;;;;;5050456;28;20036;-67
2022/02/19 05:50:09;;;;;;;14.90;2.60;;;6.50;62.90;;;;;;5040046;28;20538;-67
2022/02/19 05:52:35;;;;;;;13.15;2.78;;;6.50;63.10;;;;;;5082527;28;20083;-67
2022/02/19 05:55:00;;;;;;;15.02;2.38;;;6.50;63.40;;;;;;5049438;28;20028;-67
2022/02/19 05:57:26;;;;;;;14.25;2.13;;;6.50;63.50;;;;;;5049733;28;20048;-67
2022/02/19 05:59:52;;;;;;;9.30;1.90;;;6.50;63.80;;;;;;5041003;28;20037;-67
2022/02/19 06:02:18;;;;;;;13.20;2.00;;;6.50;63.60;;;;;;5050123;28;20124;-66
2022/02/19 06:04:44;;;;;;;12.50;2.20;;;6.50;63.70;;;;;;5048370;28;20029;-67
2022/02/19 06:07:10;;;;;;;16.25;3.05;;;6.50;63.70;;;;;;5050303;28;20043;-66
2022/02/19 06:09:35;;;;;;;11.52;2.00;;;6.50;63.60;;;;;;5044462;28;20035;-67
2022/02/19 06:12:02;;;;;;;12.88;2.28;;;6.50;63.60;;;;;;5039005;28;20025;-67
2022/02/19 06:14:28;;;;;;;13.07;2.47;;;6.50;63.60;;;;;;5048704;28;20024;-66
2022/02/19 06:16:53;;;;;;;13.73;2.20;;;6.50;63.40;;;;;;5049635;28;20115;-66
2022/02/19 06:19:19;;;;;;;8.00;1.50;;;6.50;63.40;;;;;;5041719;28;20033;-66
2022/02/19 06:21:45;;;;;;;17.27;2.53;;;6.50;63.50;;;;;;5034563;28;20112;-66
2022/02/19 06:24:10;;;;;;;9.68;1.60;;;6.60;63.50;;;;;;5038784;28;20033;-67
2022/02/19 06:26:36;;;;;;;15.57;2.60;;;6.60;63.60;;;;;;5034302;28;20037;-66
2022/02/19 06:29:02;;;;;;;12.40;1.70;;;6.60;63.50;;;;;;5029549;28;20050;-66
2022/02/19 06:31:28;;;;;;;14.70;2.15;;;6.60;63.70;;;;;;5033692;28;20132;-66
2022/02/19 06:33:54;;;;;;;16.10;1.95;;;6.60;63.90;;;;;;5048822;28;20108;-67
2022/02/19 06:36:21;;;;;;;8.35;1.63;;;6.50;63.80;;;;;;5043959;28;20488;-66
2022/02/19 06:38:47;;;;;;;11.85;2.45;;;6.50;64.00;;;;;;5028791;28;20037;-66
2022/02/19 06:41:13;;;;;;;17.25;3.25;;;6.50;64.10;;;;;;5030274;28;20584;-67
2022/02/19 06:43:39;;;;;;;20.10;3.40;;;6.50;64.30;;;;;;5029904;28;20112;-67
2022/02/19 06:46:05;;;;;;;15.02;2.88;;;6.50;64.40;;;;;;5041088;28;20032;-67
2022/02/19 06:48:31;;;;;;;15.57;2.53;;;6.50;64.50;;;;;;5044852;28;20044;-67
2022/02/19 06:50:58;;;;;;;13.70;1.98;;;6.50;64.70;;;;;;5037676;28;20439;-67
2022/02/19 06:53:24;;;;;;;8.25;2.10;;;6.50;64.90;;;;;;5046996;28;20063;-66
2022/02/19 06:55:50;;;;;;;17.13;2.35;;;6.50;65.10;;;;;;5046594;28;20548;-66
2022/02/19 06:58:16;;;;;;;10.60;2.15;;;6.50;65.00;;;;;;5040950;28;20108;-66
2022/02/19 07:00:41;;;;;;;9.77;2.00;;;6.50;65.00;;;;;;5047044;28;20036;-66
2022/02/19 07:03:07;;;;;;;14.00;2.47;;;6.50;65.00;;;;;;5060947;28;20029;-66
2022/02/19 07:05:33;;;;;;;11.20;2.05;;;6.50;64.80;;;;;;5030028;28;20033;-66
2022/02/19 07:07:59;;;;;;;12.15;2.47;;;6.60;65.00;;;;;;5040173;28;20120;-67
2022/02/19 07:10:24;;;;;;;13.00;2.25;;;6.60;65.00;;;;;;5048787;28;20056;-67
2022/02/19 07:12:50;;;;;;;15.00;2.10;;;6.50;65.00;;;;;;5045803;28;20025;-66
2022/02/19 07:15:20;;;;;;;9.48;2.72;;;6.50;64.90;;;;;;5030839;28;20025;-66
2022/02/19 07:17:54;;;;;;;10.85;2.22;;;6.50;64.90;;;;;;5043735;28;20023;-66
2022/02/19 07:20:21;;;;;;;12.02;1.95;;;6.50;65.00;;;;;;5050605;28;20032;-66
2022/02/19 07:22:51;;;;;;;12.27;2.05;;;6.50;65.00;;;;;;5038436;28;20017;-65
2022/02/19 07:25:18;;;;;;;11.93;2.10;;;6.50;65.10;;;;;;5036445;28;20025;-66
2022/02/19 07:27:46;;;;;;;13.70;2.35;;;6.50;65.20;;;;;;5029605;28;20084;-65
2022/02/19 07:30:16;;;;;;;12.02;2.15;;;6.50;65.10;;;;;;5029666;28;20022;-65
2022/02/19 07:32:42;;;;;;;9.88;2.35;;;6.60;65.30;;;;;;5062396;28;20034;-65
2022/02/19 07:35:09;;;;;;;10.75;2.33;;;6.50;65.30;;;;;;5048770;28;20021;-65
2022/02/19 07:37:36;;;;;;;8.65;1.90;;;6.50;65.40;;;;;;5050321;28;20034;-65
2022/02/19 07:40:03;;;;;;;12.45;3.50;;;6.50;65.50;;;;;;5038843;28;20513;-65
2022/02/19 07:42:29;;;;;;;13.25;2.65;;;6.50;65.50;;;;;;5040932;28;20079;-65
2022/02/19 07:44:56;;;;;;;18.05;3.17;;;6.50;65.60;;;;;;5048124;28;20410;-65
2022/02/19 07:47:25;;;;;;;14.50;2.63;;;6.50;65.70;;;;;;5041456;28;20022;-66
2022/02/19 07:58:19;;;;;;;9.85;2.78;;;6.60;66.30;;;;;;5032054;28;20092;-64
2022/02/19 08:01:05;;;;;;;13.07;2.92;;;6.60;66.20;;;;;;5032779;28;20056;-64
2022/02/19 08:03:32;;;;;;;15.35;2.20;;;6.60;66.00;;;;;;5047021;28;20426;-64
2022/02/19 08:05:59;;;;;;;15.43;2.42;;;6.60;66.00;;;;;;5029371;28;20025;-64
2022/02/19 08:08:25;;;;;;;12.52;2.35;;;6.60;66.20;;;;;;5029856;28;20096;-64
2022/02/19 08:10:51;;;;;;;13.77;2.50;;;6.60;66.20;;;;;;5043424;28;20036;-64
2022/02/19 08:13:20;;;;;;;11.27;1.95;;;6.60;66.40;;;;;;5043679;28;20047;-64
2022/02/19 08:15:46;;;;;;;15.95;3.17;;;6.60;65.80;;;;;;5031251;28;20380;-64
2022/02/19 08:18:13;;;;;;;18.27;2.75;;;6.60;66.10;;;;;;5037461;28;20017;-64
2022/02/19 08:20:44;;;;;;;13.38;2.53;;;6.70;66.20;;;;;;5048428;28;20036;-64
2022/02/19 08:23:11;;;;;;;9.48;2.03;;;6.70;66.10;;;;;;5046128;28;20036;-65
2022/02/19 08:25:38;;;;;;;11.80;2.45;;;6.70;66.00;;;;;;5044803;28;20029;-64
2022/02/19 08:28:07;;;;;;;12.55;2.70;;;6.70;66.10;;;;;;5045696;28;20874;-64
2022/02/19 08:30:35;;;;;;;11.75;1.83;;;6.70;66.10;;;;;;5044996;28;20041;-65
2022/02/19 08:33:01;;;;;;;13.63;1.92;;;6.70;66.00;;;;;;5044545;28;20373;-64
2022/02/19 08:35:27;;;;;;;10.68;2.08;;;6.60;66.00;;;;;;5044555;28;20019;-64
2022/02/19 08:37:53;;;;;;;13.02;2.40;;;6.70;66.10;;;;;;5048502;28;20029;-64
2022/02/19 08:40:18;;;;;;;16.50;2.60;;;6.70;66.20;;;;;;5051681;28;20045;-64
2022/02/19 08:42:45;;;;;;;10.38;2.28;;;6.70;66.20;;;;;;5047515;28;20210;-64
2022/02/19 08:45:11;;;;;;;11.80;2.20;;;6.70;66.30;;;;;;5050836;28;20025;-64
2022/02/19 08:47:37;;;;;;;11.60;2.00;;;6.80;66.40;;;;;;5047177;28;20017;-63
2022/02/19 08:50:05;;;;;;;9.88;1.73;;;6.80;66.30;;;;;;5050353;28;20114;-64
2022/02/19 08:52:31;;;;;;;14.13;2.58;;;6.80;65.90;;;;;;5044850;28;20120;-64
2022/02/19 08:54:58;;;;;;;12.88;2.20;;;6.80;65.80;;;;;;5042876;28;20075;-64
2022/02/19 08:57:23;;;;;;;10.15;2.28;;;6.80;65.80;;;;;;5037528;28;20063;-64
2022/02/19 08:59:49;;;;;;;11.40;2.80;;;6.80;65.90;;;;;;5072573;28;20399;-66
2022/02/19 09:02:15;;;;;;;13.45;2.80;;;6.80;66.10;;;;;;5051544;28;20090;-65
2022/02/19 09:04:41;;;;;;;12.88;2.38;;;6.80;65.90;;;;;;5050836;28;20033;-63
2022/02/19 09:07:07;;;;;;;12.00;1.95;;;6.90;65.90;;;;;;5043566;28;20032;-63
2022/02/19 09:09:36;;;;;;;10.65;2.00;;;6.90;65.90;;;;;;5048110;28;20040;-63
2022/02/19 09:12:04;;;;;;;11.38;2.15;;;6.90;65.90;;;;;;5046245;28;20017;-63
2022/02/19 09:14:29;;;;;;;14.63;2.13;;;6.90;65.60;;;;;;5043689;28;20466;-63
2022/02/19 09:16:55;;;;;;;16.60;1.98;;;7.00;65.70;;;;;;5047688;28;20029;-63
2022/02/19 09:19:21;;;;;;;10.18;2.00;;;7.00;65.40;;;;;;5048391;28;20031;-63
2022/02/19 09:21:46;;;;;;;10.60;2.00;;;7.00;65.40;;;;;;5044113;28;20389;-64
2022/02/19 09:24:12;;;;;;;8.70;2.17;;;7.10;65.20;;;;;;5046728;28;20396;-65
2022/02/19 09:26:38;;;;;;;14.88;2.20;;;7.00;64.80;;;;;;5051350;28;20036;-65
2022/02/19 09:29:03;;;;;;;12.50;2.33;;;7.10;65.00;;;;;;5048744;28;20041;-63
2022/02/19 09:31:29;;;;;;;9.50;2.25;;;7.20;65.40;;;;;;5045686;28;20045;-63
2022/02/19 09:33:57;;;;;;;10.45;1.83;;;7.20;65.30;;;;;;5045246;28;20036;-63
2022/02/19 09:36:22;;;;;;;11.10;2.53;;;7.30;65.00;;;;;;5047204;28;20025;-63
2022/02/19 09:38:49;;;;;;;10.35;2.17;;;7.30;65.00;;;;;;5043081;28;20106;-63
2022/02/19 09:41:16;;;;;;;8.00;1.58;;;7.30;64.80;;;;;;5047338;28;20067;-64
2022/02/19 09:43:42;;;;;;;10.32;2.42;;;7.30;65.00;;;;;;5047905;28;20473;-64
2022/02/19 09:46:08;;;;;;;11.73;2.47;;;7.30;65.20;;;;;;5048776;28;20533;-64
2022/02/19 09:48:34;;;;;;;11.48;2.58;;;7.30;65.30;;;;;;5071752;28;20037;-65
2022/02/19 09:51:01;;;;;;;10.75;1.88;;;7.30;65.30;;;;;;5044747;28;20480;-64
2022/02/19 09:53:28;;;;;;;15.88;2.28;;;7.30;65.10;;;;;;5039557;28;20035;-64
2022/02/19 09:55:55;;;;;;;13.75;2.10;;;7.40;65.40;;;;;;5045534;28;21805;-64
2022/02/19 09:58:23;;;;;;;12.98;1.92;;;7.50;64.80;;;;;;5043490;28;20033;-64
2022/02/19 10:00:49;;;;;;;11.65;2.70;;;7.50;64.40;;;;;;5047775;28;20432;-64
2022/02/19 10:03:21;;;;;;;14.13;2.40;;;7.50;64.50;;;;;;5039576;28;20060;-64
2022/02/19 10:05:47;;;;;;;13.18;2.15;;;7.40;64.70;;;;;;5032905;28;20459;-64
2022/02/19 10:08:13;;;;;;;13.07;2.30;;;7.40;64.80;;;;;;5040488;28;20044;-64
2022/02/19 10:10:45;;;;;;;13.07;1.95;;;7.40;65.30;;;;;;5037062;28;20396;-63
2022/02/19 10:13:25;;;;;;;16.02;2.45;;;7.50;65.20;;;;;;5075741;28;20491;-64
2022/02/19 10:15:51;;;;;;;10.70;1.77;;;7.70;64.10;;;;;;5044464;28;20021;-65
2022/02/19 10:18:22;;;;;;;8.82;1.90;;;7.80;63.70;;;;;;5042451;28;20041;-66
2022/02/19 10:20:49;;;;;;;11.20;2.60;;;7.90;63.00;;;;;;5066325;28;20028;-66
2022/02/19 10:23:15;;;;;;;11.88;2.03;;;7.90;62.90;;;;;;5064251;28;20436;-66
2022/02/19 10:25:41;;;;;;;9.02;2.40;;;7.90;62.60;;;;;;5073102;28;20076;-66
2022/02/19 10:28:10;;;;;;;11.40;2.00;;;7.90;62.50;;;;;;5083804;28;20124;-66
2022/02/19 10:30:36;;;;;;;11.38;1.83;;;7.80;63.00;;;;;;5045949;28;20048;-66
2022/02/19 10:33:06;;;;;;;9.65;2.55;;;7.90;63.40;;;;;;5048907;28;20120;-66
2022/02/19 10:35:38;;;;;;;11.65;2.00;;;7.90;63.30;;;;;;5042762;28;20296;-66
2022/02/19 10:38:10;;;;;;;11.27;2.58;;;8.00;62.60;;;;;;5042248;28;20032;-64
2022/02/19 10:40:42;;;;;;;11.52;2.40;;;8.00;62.80;;;;;;5034733;28;20078;-64
2022/02/19 10:43:17;;;;;;;8.40;1.80;;;8.10;62.80;;;;;;5041144;28;20101;-64
2022/02/19 10:45:57;;;;;;;8.88;1.92;;;8.20;62.90;;;;;;5042184;28;20029;-65
2022/02/19 10:48:22;;;;;;;10.00;2.53;;;8.20;63.30;;;;;;5042666;28;20036;-64
2022/02/19 10:50:48;;;;;;;13.43;2.28;;;8.20;63.70;;;;;;5049755;28;20026;-64
2022/02/19 10:53:43;;;;;;;12.73;3.05;;;8.20;63.60;;;;;;5030192;28;20021;-64
2022/02/19 10:56:17;;;;;;;11.50;2.70;;;8.20;63.40;;;;;;5043847;28;20120;-64
2022/02/19 10:59:11;;;;;;;9.13;2.17;;;8.20;62.10;;;;;;5045891;28;20116;-64
2022/02/19 11:01:47;;;;;;;15.38;2.35;;;8.30;61.50;;;;;;5042437;28;20655;-64
2022/02/19 11:04:15;;;;;;;7.63;1.73;;;8.30;60.90;;;;;;5033981;28;20057;-64
2022/02/19 11:06:42;;;;;;;9.35;1.73;;;8.30;60.40;;;;;;5049770;28;20383;-64
2022/02/19 11:09:09;;;;;;;7.60;1.70;;;8.30;60.10;;;;;;5079638;28;20120;-64
2022/02/19 11:11:36;;;;;;;6.75;1.58;;;8.30;60.40;;;;;;5049145;28;20028;-64
2022/02/19 11:14:09;;;;;;;14.18;1.80;;;8.40;61.20;;;;;;5038659;28;20075;-64
2022/02/19 11:16:35;;;;;;;10.38;2.40;;;8.60;61.70;;;;;;5037206;28;20495;-64
2022/02/19 11:19:02;;;;;;;10.68;1.80;;;8.60;61.70;;;;;;5037417;28;20029;-64
2022/02/19 11:21:29;;;;;;;7.60;1.98;;;8.60;61.90;;;;;;5036983;28;20029;-64
2022/02/19 11:24:04;;;;;;;11.85;2.10;;;8.60;62.60;;;;;;5046224;28;20449;-64
2022/02/19 11:26:30;;;;;;;15.45;2.63;;;8.50;62.80;;;;;;5040078;28;20677;-64
2022/02/19 11:29:03;;;;;;;10.02;1.80;;;8.40;63.60;;;;;;5035481;28;20049;-64
2022/02/19 11:31:31;;;;;;;8.10;2.10;;;8.40;64.40;;;;;;5044700;28;20024;-64
2022/02/19 11:34:04;;;;;;;12.40;2.45;;;8.50;64.10;;;;;;5041782;28;20036;-64
2022/02/19 11:36:30;;;;;;;;;;;8.70;63.80;;;;;;5042147;28;20025;-64
2022/02/19 11:38:56;;;;;;;9.30;2.10;;;8.80;62.30;;;;;;5040842;28;19923;-64
2022/02/19 11:41:35;;;;;;;9.40;2.10;;;8.90;60.70;;;;;;5070937;28;20452;-64
2022/02/19 11:44:03;;;;;;;10.00;1.83;;;8.80;60.70;;;;;;5033281;28;20033;-64
2022/02/19 11:46:29;;;;;;;8.23;1.73;;;8.70;59.90;;;;;;5036992;28;20411;-64
2022/02/19 11:48:55;;;;;;;7.63;1.40;;;8.70;59.60;;;;;;5047127;28;20090;-64
2022/02/19 11:51:26;;;;;;;7.32;1.50;;;8.80;59.30;;;;;;5042315;28;20056;-64
2022/02/19 11:54:12;;;;;;;10.93;1.45;;;8.90;59.50;;;;;;5033893;28;20023;-65
2022/02/19 11:56:41;;;;;;;11.00;1.70;;;9.00;58.90;;;;;;5045452;28;20045;-65
2022/02/19 11:59:12;;;;;;;10.98;1.58;;;8.90;58.80;;;;;;5037193;28;20032;-64
2022/02/19 12:01:40;;;;;;;7.60;1.45;;;8.90;58.90;;;;;;5035307;28;20032;-64
2022/02/19 12:04:19;;;;;;;8.85;1.95;;;8.90;58.40;;;;;;5038398;28;20105;-64
2022/02/19 12:07:06;;;;;;;7.40;1.60;;;8.90;58.50;;;;;;5038234;28;20032;-64
2022/02/19 12:09:33;;;;;;;8.57;1.90;;;9.10;58.40;;;;;;5047126;28;20249;-64
2022/02/19 12:12:09;;;;;;;5.63;1.63;;;9.30;57.80;;;;;;5043175;28;20029;-65
2022/02/19 12:14:51;;;;;;;5.38;1.30;;;9.50;58.10;;;;;;5042017;28;20090;-64
2022/02/19 12:17:18;;;;;;;9.98;1.70;;;9.70;57.40;;;;;;5041182;28;20025;-66
2022/02/19 12:19:59;;;;;;;12.57;2.03;;;9.70;57.20;;;;;;5050635;28;20039;-66
2022/02/19 12:22:49;;;;;;;10.52;2.00;;;9.60;57.00;;;;;;5047296;28;20037;-66
2022/02/19 12:25:16;;;;;;;8.00;2.10;;;9.40;57.20;;;;;;5044814;28;20468;-66
2022/02/19 12:27:43;;;;;;;8.82;2.10;;;9.40;58.20;;;;;;5069847;28;20059;-66
2022/02/19 12:30:23;;;;;;;8.07;1.77;;;9.40;58.50;;;;;;5045263;28;20500;-66
2022/02/19 12:32:52;;;;;;;9.48;2.00;;;9.50;58.50;;;;;;5053893;28;20016;-66
2022/02/19 12:35:17;;;;;;;15.05;2.20;;;9.50;58.10;;;;;;5061164;28;20056;-66
2022/02/19 12:37:43;;;;;;;9.50;1.90;;;9.50;57.90;;;;;;5068863;28;20060;-65
2022/02/19 12:40:15;;;;;;;9.30;1.85;;;9.50;57.70;;;;;;5049185;28;20033;-65
2022/02/19 12:42:47;;;;;;;11.85;2.00;;;9.60;57.90;;;;;;5044658;28;20026;-65
2022/02/19 12:45:12;;;;;;;9.70;1.95;;;9.60;57.80;;;;;;5035537;28;20033;-64
2022/02/19 12:47:39;;;;;;;10.65;1.77;;;9.70;57.60;;;;;;5044798;28;20570;-64
2022/02/19 12:50:07;;;;;;;4.75;1.40;;;9.70;57.60;;;;;;5041445;28;20036;-65
2022/02/19 12:52:33;;;;;;;4.55;1.60;;;9.70;56.50;;;;;;5032810;28;20030;-64
2022/02/19 12:54:59;;;;;;;7.63;1.83;;;9.90;55.70;;;;;;5040392;28;20028;-65
2022/02/19 12:57:25;;;;;;;8.48;2.20;;;10.40;54.80;;;;;;5033085;28;20041;-65
2022/02/19 12:59:53;;;;;;;7.95;1.70;;;10.90;53.70;;;;;;5039616;28;20036;-65